sensor_id;sensor_type;location;lat;lon;timestamp;P1;durP1;ratioP1;P2;durP2;ratioP2
16731;SDS011;8484;50.904;9.192;2022-07-09T00:00:54;1.10;;;0.60;;
16731;SDS011;8484;50.904;9.192;2022-07-09T00:03:22;3.03;;;0.90;;
16731;SDS011;8484;50.904;9.192;2022-07-09T00:05:49;2.20;;;0.77;;
16731;SDS011;8484;50.904;9.192;2022-07-09T00:08:16;2.73;;;1.00;;
16731;SDS011;8484;50.904;9.192;2022-07-09T00:10:43;1.87;;;0.80;;
16731;SDS011;8484;50.904;9.192;2022-07-09T00:13:11;1.23;;;0.70;;
16731;SDS011;8484;50.904;9.192;2022-07-09T00:15:38;3.43;;;0.97;;
16731;SDS011;8484;50.904;9.192;2022-07-09T00:18:05;3.40;;;1.30;;
16731;SDS011;8484;50.904;9.192;2022-07-09T00:20:32;2.40;;;0.80;;
16731;SDS011;8484;50.904;9.192;2022-07-09T00:22:58;2.23;;;0.80;;
16731;SDS011;8484;50.904;9.192;2022-07-09T00:25:25;2.07;;;0.67;;
16731;SDS011;8484;50.904;9.192;2022-07-09T00:27:52;1.30;;;0.90;;
16731;SDS011;8484;50.904;9.192;2022-07-09T00:30:20;1.70;;;0.80;;
16731;SDS011;8484;50.904;9.192;2022-07-09T00:32:47;2.93;;;0.70;;
16731;SDS011;8484;50.904;9.192;2022-07-09T00:35:14;3.20;;;0.60;;
16731;SDS011;8484;50.904;9.192;2022-07-09T00:37:40;1.70;;;0.80;;
16731;SDS011;8484;50.904;9.192;2022-07-09T00:40:07;1.00;;;0.67;;
16731;SDS011;8484;50.904;9.192;2022-07-09T00:42:35;1.10;;;0.70;;
16731;SDS011;8484;50.904;9.192;2022-07-09T00:45:02;1.77;;;0.90;;
16731;SDS011;8484;50.904;9.192;2022-07-09T00:47:31;1.50;;;0.80;;
16731;SDS011;8484;50.904;9.192;2022-07-09T00:49:57;2.50;;;0.90;;
16731;SDS011;8484;50.904;9.192;2022-07-09T00:52:25;4.57;;;0.77;;
16731;SDS011;8484;50.904;9.192;2022-07-09T00:54:52;1.30;;;0.90;;
16731;SDS011;8484;50.904;9.192;2022-07-09T00:57:22;1.20;;;0.90;;
16731;SDS011;8484;50.904;9.192;2022-07-09T00:59:49;1.33;;;0.73;;
16731;SDS011;8484;50.904;9.192;2022-07-09T01:02:17;2.60;;;1.47;;
16731;SDS011;8484;50.904;9.192;2022-07-09T01:04:49;1.40;;;0.90;;
16731;SDS011;8484;50.904;9.192;2022-07-09T01:07:16;1.23;;;0.90;;
16731;SDS011;8484;50.904;9.192;2022-07-09T01:09:44;1.20;;;0.90;;
16731;SDS011;8484;50.904;9.192;2022-07-09T01:12:11;1.37;;;1.20;;
16731;SDS011;8484;50.904;9.192;2022-07-09T01:14:38;1.13;;;0.77;;
16731;SDS011;8484;50.904;9.192;2022-07-09T01:17:05;2.57;;;1.10;;
16731;SDS011;8484;50.904;9.192;2022-07-09T01:19:33;1.80;;;1.00;;
16731;SDS011;8484;50.904;9.192;2022-07-09T01:22:01;2.63;;;1.10;;
16731;SDS011;8484;50.904;9.192;2022-07-09T01:24:29;2.60;;;1.30;;
16731;SDS011;8484;50.904;9.192;2022-07-09T01:26:56;2.00;;;1.00;;
16731;SDS011;8484;50.904;9.192;2022-07-09T01:29:23;2.23;;;1.23;;
16731;SDS011;8484;50.904;9.192;2022-07-09T01:31:50;2.07;;;1.40;;
16731;SDS011;8484;50.904;9.192;2022-07-09T01:34:17;2.20;;;1.30;;
16731;SDS011;8484;50.904;9.192;2022-07-09T01:36:43;2.90;;;1.43;;
16731;SDS011;8484;50.904;9.192;2022-07-09T01:39:12;1.83;;;1.33;;
16731;SDS011;8484;50.904;9.192;2022-07-09T01:41:39;2.07;;;1.30;;
16731;SDS011;8484;50.904;9.192;2022-07-09T01:44:05;1.10;;;1.00;;
16731;SDS011;8484;50.904;9.192;2022-07-09T01:46:33;2.33;;;1.00;;
16731;SDS011;8484;50.904;9.192;2022-07-09T01:49:00;1.63;;;1.20;;
16731;SDS011;8484;50.904;9.192;2022-07-09T01:51:27;2.10;;;1.10;;
16731;SDS011;8484;50.904;9.192;2022-07-09T01:53:54;1.10;;;0.90;;
16731;SDS011;8484;50.904;9.192;2022-07-09T01:56:22;1.23;;;0.90;;
16731;SDS011;8484;50.904;9.192;2022-07-09T01:58:49;2.77;;;1.23;;
16731;SDS011;8484;50.904;9.192;2022-07-09T02:01:16;2.17;;;0.97;;
16731;SDS011;8484;50.904;9.192;2022-07-09T02:03:43;2.20;;;1.30;;
16731;SDS011;8484;50.904;9.192;2022-07-09T02:06:10;1.47;;;1.00;;
16731;SDS011;8484;50.904;9.192;2022-07-09T02:08:36;1.90;;;1.00;;
16731;SDS011;8484;50.904;9.192;2022-07-09T02:11:04;2.33;;;1.00;;
16731;SDS011;8484;50.904;9.192;2022-07-09T02:13:33;1.80;;;0.90;;
16731;SDS011;8484;50.904;9.192;2022-07-09T02:16:00;1.33;;;0.83;;
16731;SDS011;8484;50.904;9.192;2022-07-09T02:18:27;0.87;;;0.70;;
16731;SDS011;8484;50.904;9.192;2022-07-09T02:20:54;3.53;;;1.47;;
16731;SDS011;8484;50.904;9.192;2022-07-09T02:23:21;1.37;;;0.77;;
16731;SDS011;8484;50.904;9.192;2022-07-09T02:25:48;2.93;;;1.20;;
16731;SDS011;8484;50.904;9.192;2022-07-09T02:28:15;1.43;;;0.83;;
16731;SDS011;8484;50.904;9.192;2022-07-09T02:30:43;1.23;;;0.80;;
16731;SDS011;8484;50.904;9.192;2022-07-09T02:33:10;1.13;;;0.80;;
16731;SDS011;8484;50.904;9.192;2022-07-09T02:35:37;2.57;;;0.80;;
16731;SDS011;8484;50.904;9.192;2022-07-09T02:38:04;1.00;;;0.80;;
16731;SDS011;8484;50.904;9.192;2022-07-09T02:40:31;1.43;;;0.80;;
16731;SDS011;8484;50.904;9.192;2022-07-09T02:42:58;1.93;;;1.00;;
16731;SDS011;8484;50.904;9.192;2022-07-09T02:45:25;3.57;;;0.90;;
16731;SDS011;8484;50.904;9.192;2022-07-09T02:47:53;2.47;;;1.00;;
16731;SDS011;8484;50.904;9.192;2022-07-09T02:50:20;2.50;;;0.97;;
16731;SDS011;8484;50.904;9.192;2022-07-09T02:52:47;1.57;;;1.10;;
16731;SDS011;8484;50.904;9.192;2022-07-09T02:55:14;1.00;;;0.80;;
16731;SDS011;8484;50.904;9.192;2022-07-09T02:57:41;1.97;;;0.83;;
16731;SDS011;8484;50.904;9.192;2022-07-09T03:00:08;2.40;;;0.93;;
16731;SDS011;8484;50.904;9.192;2022-07-09T03:02:42;2.00;;;1.00;;
16731;SDS011;8484;50.904;9.192;2022-07-09T03:05:24;1.57;;;0.80;;
16731;SDS011;8484;50.904;9.192;2022-07-09T03:07:51;1.40;;;1.13;;
16731;SDS011;8484;50.904;9.192;2022-07-09T03:10:17;1.33;;;0.80;;
16731;SDS011;8484;50.904;9.192;2022-07-09T03:12:44;2.40;;;0.90;;
16731;SDS011;8484;50.904;9.192;2022-07-09T03:15:11;1.20;;;1.10;;
16731;SDS011;8484;50.904;9.192;2022-07-09T03:17:40;1.83;;;1.03;;
16731;SDS011;8484;50.904;9.192;2022-07-09T03:20:07;3.23;;;1.03;;
16731;SDS011;8484;50.904;9.192;2022-07-09T03:22:36;1.33;;;1.03;;
16731;SDS011;8484;50.904;9.192;2022-07-09T03:25:04;1.77;;;1.27;;
16731;SDS011;8484;50.904;9.192;2022-07-09T03:27:31;1.93;;;1.10;;
16731;SDS011;8484;50.904;9.192;2022-07-09T03:29:58;3.47;;;0.87;;
16731;SDS011;8484;50.904;9.192;2022-07-09T03:32:25;2.60;;;1.00;;
16731;SDS011;8484;50.904;9.192;2022-07-09T03:34:52;1.57;;;1.00;;
16731;SDS011;8484;50.904;9.192;2022-07-09T03:37:19;2.23;;;1.60;;
16731;SDS011;8484;50.904;9.192;2022-07-09T03:39:48;1.73;;;1.00;;
16731;SDS011;8484;50.904;9.192;2022-07-09T03:42:14;1.73;;;1.23;;
16731;SDS011;8484;50.904;9.192;2022-07-09T03:44:47;1.67;;;1.00;;
16731;SDS011;8484;50.904;9.192;2022-07-09T03:47:14;2.17;;;1.13;;
16731;SDS011;8484;50.904;9.192;2022-07-09T03:49:41;1.63;;;1.10;;
16731;SDS011;8484;50.904;9.192;2022-07-09T03:52:08;3.23;;;1.00;;
16731;SDS011;8484;50.904;9.192;2022-07-09T03:54:35;1.47;;;0.90;;
16731;SDS011;8484;50.904;9.192;2022-07-09T03:57:03;1.57;;;0.90;;
16731;SDS011;8484;50.904;9.192;2022-07-09T03:59:30;2.17;;;1.07;;
16731;SDS011;8484;50.904;9.192;2022-07-09T04:01:57;1.90;;;0.93;;
16731;SDS011;8484;50.904;9.192;2022-07-09T04:04:24;1.43;;;1.07;;
16731;SDS011;8484;50.904;9.192;2022-07-09T04:06:51;1.67;;;1.10;;
16731;SDS011;8484;50.904;9.192;2022-07-09T04:09:20;3.37;;;1.13;;
16731;SDS011;8484;50.904;9.192;2022-07-09T04:11:47;1.63;;;1.03;;
16731;SDS011;8484;50.904;9.192;2022-07-09T04:14:15;2.03;;;1.43;;
16731;SDS011;8484;50.904;9.192;2022-07-09T04:16:44;3.20;;;1.30;;
16731;SDS011;8484;50.904;9.192;2022-07-09T04:19:11;2.07;;;1.20;;
16731;SDS011;8484;50.904;9.192;2022-07-09T04:21:38;2.50;;;1.37;;
16731;SDS011;8484;50.904;9.192;2022-07-09T04:24:05;2.47;;;1.30;;
16731;SDS011;8484;50.904;9.192;2022-07-09T04:26:32;1.53;;;1.30;;
16731;SDS011;8484;50.904;9.192;2022-07-09T04:28:59;1.53;;;1.17;;
16731;SDS011;8484;50.904;9.192;2022-07-09T04:31:27;1.80;;;1.20;;
16731;SDS011;8484;50.904;9.192;2022-07-09T04:33:54;2.77;;;1.20;;
16731;SDS011;8484;50.904;9.192;2022-07-09T04:36:21;3.63;;;1.40;;
16731;SDS011;8484;50.904;9.192;2022-07-09T04:38:48;2.03;;;1.20;;
16731;SDS011;8484;50.904;9.192;2022-07-09T04:41:15;3.50;;;1.50;;
16731;SDS011;8484;50.904;9.192;2022-07-09T04:43:44;1.37;;;1.00;;
16731;SDS011;8484;50.904;9.192;2022-07-09T04:46:11;3.07;;;1.40;;
16731;SDS011;8484;50.904;9.192;2022-07-09T04:48:40;1.87;;;0.90;;
16731;SDS011;8484;50.904;9.192;2022-07-09T04:51:07;1.33;;;0.93;;
16731;SDS011;8484;50.904;9.192;2022-07-09T04:53:34;1.40;;;1.10;;
16731;SDS011;8484;50.904;9.192;2022-07-09T04:56:01;2.40;;;1.00;;
16731;SDS011;8484;50.904;9.192;2022-07-09T04:58:28;1.77;;;0.90;;
16731;SDS011;8484;50.904;9.192;2022-07-09T05:00:55;1.67;;;0.90;;
16731;SDS011;8484;50.904;9.192;2022-07-09T05:03:22;1.50;;;1.17;;
16731;SDS011;8484;50.904;9.192;2022-07-09T05:05:51;1.30;;;1.00;;
16731;SDS011;8484;50.904;9.192;2022-07-09T05:08:18;2.53;;;1.37;;
16731;SDS011;8484;50.904;9.192;2022-07-09T05:10:45;3.33;;;0.80;;
16731;SDS011;8484;50.904;9.192;2022-07-09T05:13:11;5.40;;;1.00;;
16731;SDS011;8484;50.904;9.192;2022-07-09T05:15:38;1.50;;;0.90;;
16731;SDS011;8484;50.904;9.192;2022-07-09T05:18:05;1.13;;;0.67;;
16731;SDS011;8484;50.904;9.192;2022-07-09T05:20:32;4.33;;;1.00;;
16731;SDS011;8484;50.904;9.192;2022-07-09T05:23:00;2.47;;;0.80;;
16731;SDS011;8484;50.904;9.192;2022-07-09T05:25:27;1.73;;;0.80;;
16731;SDS011;8484;50.904;9.192;2022-07-09T05:27:54;0.80;;;0.63;;
16731;SDS011;8484;50.904;9.192;2022-07-09T05:30:21;1.37;;;0.80;;
16731;SDS011;8484;50.904;9.192;2022-07-09T05:32:48;1.27;;;0.90;;
16731;SDS011;8484;50.904;9.192;2022-07-09T05:35:14;0.83;;;0.70;;
16731;SDS011;8484;50.904;9.192;2022-07-09T05:37:42;1.67;;;0.93;;
16731;SDS011;8484;50.904;9.192;2022-07-09T05:40:11;2.83;;;1.00;;
16731;SDS011;8484;50.904;9.192;2022-07-09T05:42:39;1.23;;;0.80;;
16731;SDS011;8484;50.904;9.192;2022-07-09T05:45:09;1.87;;;0.80;;
16731;SDS011;8484;50.904;9.192;2022-07-09T05:47:36;2.40;;;1.00;;
16731;SDS011;8484;50.904;9.192;2022-07-09T05:50:03;2.57;;;1.13;;
16731;SDS011;8484;50.904;9.192;2022-07-09T05:52:31;1.90;;;0.80;;
16731;SDS011;8484;50.904;9.192;2022-07-09T05:54:58;1.80;;;0.90;;
16731;SDS011;8484;50.904;9.192;2022-07-09T05:57:26;3.33;;;1.30;;
16731;SDS011;8484;50.904;9.192;2022-07-09T05:59:53;3.30;;;1.00;;
16731;SDS011;8484;50.904;9.192;2022-07-09T06:02:28;2.50;;;0.93;;
16731;SDS011;8484;50.904;9.192;2022-07-09T06:04:55;1.53;;;0.83;;
16731;SDS011;8484;50.904;9.192;2022-07-09T06:07:22;2.20;;;1.00;;
16731;SDS011;8484;50.904;9.192;2022-07-09T06:09:48;1.00;;;0.90;;
16731;SDS011;8484;50.904;9.192;2022-07-09T06:12:15;2.13;;;0.90;;
16731;SDS011;8484;50.904;9.192;2022-07-09T06:14:43;1.93;;;0.90;;
16731;SDS011;8484;50.904;9.192;2022-07-09T06:17:10;3.80;;;1.23;;
16731;SDS011;8484;50.904;9.192;2022-07-09T06:19:37;2.13;;;0.80;;
16731;SDS011;8484;50.904;9.192;2022-07-09T06:22:04;2.07;;;1.00;;
16731;SDS011;8484;50.904;9.192;2022-07-09T06:24:31;1.37;;;0.90;;
16731;SDS011;8484;50.904;9.192;2022-07-09T06:26:58;2.37;;;1.10;;
16731;SDS011;8484;50.904;9.192;2022-07-09T06:29:25;1.03;;;0.90;;
16731;SDS011;8484;50.904;9.192;2022-07-09T06:31:53;1.63;;;0.90;;
16731;SDS011;8484;50.904;9.192;2022-07-09T06:34:25;4.10;;;1.17;;
16731;SDS011;8484;50.904;9.192;2022-07-09T06:36:51;2.13;;;1.20;;
16731;SDS011;8484;50.904;9.192;2022-07-09T06:39:18;2.60;;;1.10;;
16731;SDS011;8484;50.904;9.192;2022-07-09T06:42:03;2.30;;;1.23;;
16731;SDS011;8484;50.904;9.192;2022-07-09T06:44:30;2.00;;;1.30;;
16731;SDS011;8484;50.904;9.192;2022-07-09T06:46:59;1.40;;;1.03;;
16731;SDS011;8484;50.904;9.192;2022-07-09T06:49:26;3.93;;;1.30;;
16731;SDS011;8484;50.904;9.192;2022-07-09T06:51:52;2.20;;;1.03;;
16731;SDS011;8484;50.904;9.192;2022-07-09T06:54:19;1.83;;;1.23;;
16731;SDS011;8484;50.904;9.192;2022-07-09T06:56:53;1.80;;;1.20;;
16731;SDS011;8484;50.904;9.192;2022-07-09T06:59:21;3.63;;;1.53;;
16731;SDS011;8484;50.904;9.192;2022-07-09T07:01:48;6.17;;;1.37;;
16731;SDS011;8484;50.904;9.192;2022-07-09T07:04:16;3.13;;;1.60;;
16731;SDS011;8484;50.904;9.192;2022-07-09T07:06:45;4.23;;;2.10;;
16731;SDS011;8484;50.904;9.192;2022-07-09T07:09:13;4.23;;;1.70;;
16731;SDS011;8484;50.904;9.192;2022-07-09T07:11:43;2.27;;;1.60;;
16731;SDS011;8484;50.904;9.192;2022-07-09T07:14:10;2.20;;;1.60;;
16731;SDS011;8484;50.904;9.192;2022-07-09T07:16:36;2.67;;;1.70;;
16731;SDS011;8484;50.904;9.192;2022-07-09T07:19:03;3.17;;;1.53;;
16731;SDS011;8484;50.904;9.192;2022-07-09T07:21:32;3.57;;;1.77;;
16731;SDS011;8484;50.904;9.192;2022-07-09T07:23:58;2.93;;;1.97;;
16731;SDS011;8484;50.904;9.192;2022-07-09T07:26:25;3.23;;;2.00;;
16731;SDS011;8484;50.904;9.192;2022-07-09T07:28:52;7.33;;;2.17;;
16731;SDS011;8484;50.904;9.192;2022-07-09T07:31:19;3.00;;;1.83;;
16731;SDS011;8484;50.904;9.192;2022-07-09T07:33:47;4.60;;;2.30;;
16731;SDS011;8484;50.904;9.192;2022-07-09T07:36:14;4.03;;;2.40;;
16731;SDS011;8484;50.904;9.192;2022-07-09T07:38:42;1.80;;;1.70;;
16731;SDS011;8484;50.904;9.192;2022-07-09T07:41:10;2.33;;;2.00;;
16731;SDS011;8484;50.904;9.192;2022-07-09T07:43:37;2.90;;;1.90;;
16731;SDS011;8484;50.904;9.192;2022-07-09T07:46:03;3.63;;;2.00;;
16731;SDS011;8484;50.904;9.192;2022-07-09T07:48:30;3.57;;;1.90;;
16731;SDS011;8484;50.904;9.192;2022-07-09T07:50:57;4.00;;;2.20;;
16731;SDS011;8484;50.904;9.192;2022-07-09T07:53:24;3.30;;;2.13;;
16731;SDS011;8484;50.904;9.192;2022-07-09T07:55:52;2.97;;;1.90;;
16731;SDS011;8484;50.904;9.192;2022-07-09T07:58:19;2.40;;;1.63;;
16731;SDS011;8484;50.904;9.192;2022-07-09T08:00:46;2.80;;;2.00;;
16731;SDS011;8484;50.904;9.192;2022-07-09T08:03:12;2.77;;;1.87;;
16731;SDS011;8484;50.904;9.192;2022-07-09T08:05:39;4.33;;;2.00;;
16731;SDS011;8484;50.904;9.192;2022-07-09T08:08:06;3.07;;;1.70;;
16731;SDS011;8484;50.904;9.192;2022-07-09T08:10:33;3.33;;;2.20;;
16731;SDS011;8484;50.904;9.192;2022-07-09T08:13:01;2.57;;;1.87;;
16731;SDS011;8484;50.904;9.192;2022-07-09T08:15:28;2.10;;;1.80;;
16731;SDS011;8484;50.904;9.192;2022-07-09T08:17:55;2.23;;;1.70;;
16731;SDS011;8484;50.904;9.192;2022-07-09T08:20:21;2.20;;;1.60;;
16731;SDS011;8484;50.904;9.192;2022-07-09T08:22:48;1.63;;;1.50;;
16731;SDS011;8484;50.904;9.192;2022-07-09T08:25:15;3.93;;;1.50;;
16731;SDS011;8484;50.904;9.192;2022-07-09T08:27:42;2.07;;;1.50;;
16731;SDS011;8484;50.904;9.192;2022-07-09T08:30:10;2.73;;;1.30;;
16731;SDS011;8484;50.904;9.192;2022-07-09T08:32:37;1.40;;;0.70;;
16731;SDS011;8484;50.904;9.192;2022-07-09T08:35:05;1.47;;;1.00;;
16731;SDS011;8484;50.904;9.192;2022-07-09T08:37:33;3.47;;;1.03;;
16731;SDS011;8484;50.904;9.192;2022-07-09T08:40:00;1.33;;;0.83;;
16731;SDS011;8484;50.904;9.192;2022-07-09T08:42:27;1.40;;;0.97;;
16731;SDS011;8484;50.904;9.192;2022-07-09T08:44:54;1.10;;;0.90;;
16731;SDS011;8484;50.904;9.192;2022-07-09T08:47:22;1.57;;;1.00;;
16731;SDS011;8484;50.904;9.192;2022-07-09T08:49:50;1.43;;;1.00;;
16731;SDS011;8484;50.904;9.192;2022-07-09T08:52:21;2.27;;;1.00;;
16731;SDS011;8484;50.904;9.192;2022-07-09T08:54:50;1.60;;;0.80;;
16731;SDS011;8484;50.904;9.192;2022-07-09T08:57:19;1.60;;;0.80;;
16731;SDS011;8484;50.904;9.192;2022-07-09T08:59:46;2.73;;;1.10;;
16731;SDS011;8484;50.904;9.192;2022-07-09T09:02:12;1.90;;;1.10;;
16731;SDS011;8484;50.904;9.192;2022-07-09T09:04:41;1.80;;;1.40;;
16731;SDS011;8484;50.904;9.192;2022-07-09T09:07:11;2.47;;;1.20;;
16731;SDS011;8484;50.904;9.192;2022-07-09T09:09:39;0.60;;;0.57;;
16731;SDS011;8484;50.904;9.192;2022-07-09T09:12:06;0.67;;;0.60;;
16731;SDS011;8484;50.904;9.192;2022-07-09T09:14:34;1.13;;;0.60;;
16731;SDS011;8484;50.904;9.192;2022-07-09T09:17:04;0.80;;;0.70;;
16731;SDS011;8484;50.904;9.192;2022-07-09T09:19:31;0.73;;;0.70;;
16731;SDS011;8484;50.904;9.192;2022-07-09T09:22:00;0.90;;;0.70;;
16731;SDS011;8484;50.904;9.192;2022-07-09T09:24:27;1.10;;;0.80;;
16731;SDS011;8484;50.904;9.192;2022-07-09T09:26:58;1.00;;;0.60;;
16731;SDS011;8484;50.904;9.192;2022-07-09T09:29:25;1.23;;;0.50;;
16731;SDS011;8484;50.904;9.192;2022-07-09T09:32:08;0.60;;;0.50;;
16731;SDS011;8484;50.904;9.192;2022-07-09T09:34:36;0.60;;;0.50;;
16731;SDS011;8484;50.904;9.192;2022-07-09T09:37:07;0.40;;;0.40;;
16731;SDS011;8484;50.904;9.192;2022-07-09T09:39:35;0.87;;;0.50;;
16731;SDS011;8484;50.904;9.192;2022-07-09T09:42:02;2.43;;;0.57;;
16731;SDS011;8484;50.904;9.192;2022-07-09T09:44:31;0.53;;;0.50;;
16731;SDS011;8484;50.904;9.192;2022-07-09T09:47:03;3.60;;;3.33;;
16731;SDS011;8484;50.904;9.192;2022-07-09T09:49:32;1.17;;;0.53;;
16731;SDS011;8484;50.904;9.192;2022-07-09T09:52:02;0.80;;;0.60;;
16731;SDS011;8484;50.904;9.192;2022-07-09T09:54:32;0.70;;;0.40;;
16731;SDS011;8484;50.904;9.192;2022-07-09T09:56:59;0.50;;;0.50;;
16731;SDS011;8484;50.904;9.192;2022-07-09T09:59:30;0.60;;;0.40;;
16731;SDS011;8484;50.904;9.192;2022-07-09T10:01:59;0.70;;;0.30;;
16731;SDS011;8484;50.904;9.192;2022-07-09T10:04:27;0.67;;;0.30;;
16731;SDS011;8484;50.904;9.192;2022-07-09T10:06:55;0.53;;;0.30;;
16731;SDS011;8484;50.904;9.192;2022-07-09T10:09:22;0.30;;;0.30;;
16731;SDS011;8484;50.904;9.192;2022-07-09T10:11:50;0.50;;;0.30;;
16731;SDS011;8484;50.904;9.192;2022-07-09T10:14:18;0.40;;;0.40;;
16731;SDS011;8484;50.904;9.192;2022-07-09T10:16:56;0.77;;;0.40;;
16731;SDS011;8484;50.904;9.192;2022-07-09T10:19:35;0.40;;;0.30;;
16731;SDS011;8484;50.904;9.192;2022-07-09T10:22:02;0.23;;;0.23;;
16731;SDS011;8484;50.904;9.192;2022-07-09T10:24:30;0.43;;;0.40;;
16731;SDS011;8484;50.904;9.192;2022-07-09T10:27:03;0.73;;;0.30;;
16731;SDS011;8484;50.904;9.192;2022-07-09T10:29:32;0.40;;;0.40;;
16731;SDS011;8484;50.904;9.192;2022-07-09T10:32:00;0.40;;;0.40;;
16731;SDS011;8484;50.904;9.192;2022-07-09T10:34:38;0.53;;;0.30;;
16731;SDS011;8484;50.904;9.192;2022-07-09T10:37:13;0.30;;;0.30;;
16731;SDS011;8484;50.904;9.192;2022-07-09T10:39:40;0.73;;;0.40;;
16731;SDS011;8484;50.904;9.192;2022-07-09T10:42:19;0.50;;;0.30;;
16731;SDS011;8484;50.904;9.192;2022-07-09T10:44:48;0.60;;;0.40;;
16731;SDS011;8484;50.904;9.192;2022-07-09T10:47:16;0.30;;;0.30;;
16731;SDS011;8484;50.904;9.192;2022-07-09T10:49:43;0.47;;;0.40;;
16731;SDS011;8484;50.904;9.192;2022-07-09T10:52:10;0.60;;;0.50;;
16731;SDS011;8484;50.904;9.192;2022-07-09T10:54:45;0.90;;;0.50;;
16731;SDS011;8484;50.904;9.192;2022-07-09T10:57:13;2.10;;;0.50;;
16731;SDS011;8484;50.904;9.192;2022-07-09T10:59:45;1.50;;;0.57;;
16731;SDS011;8484;50.904;9.192;2022-07-09T11:02:19;0.20;;;0.20;;
16731;SDS011;8484;50.904;9.192;2022-07-09T11:04:50;0.67;;;0.30;;
16731;SDS011;8484;50.904;9.192;2022-07-09T11:07:21;1.17;;;0.23;;
16731;SDS011;8484;50.904;9.192;2022-07-09T11:09:49;0.40;;;0.30;;
16731;SDS011;8484;50.904;9.192;2022-07-09T11:12:16;0.40;;;0.37;;
16731;SDS011;8484;50.904;9.192;2022-07-09T11:14:45;0.40;;;0.30;;
16731;SDS011;8484;50.904;9.192;2022-07-09T11:17:15;0.73;;;0.30;;
16731;SDS011;8484;50.904;9.192;2022-07-09T11:19:43;0.33;;;0.30;;
16731;SDS011;8484;50.904;9.192;2022-07-09T11:22:10;0.30;;;0.30;;
16731;SDS011;8484;50.904;9.192;2022-07-09T11:24:37;0.80;;;0.40;;
16731;SDS011;8484;50.904;9.192;2022-07-09T11:27:04;0.20;;;0.20;;
16731;SDS011;8484;50.904;9.192;2022-07-09T11:29:33;1.80;;;0.40;;
16731;SDS011;8484;50.904;9.192;2022-07-09T11:32:02;0.37;;;0.30;;
16731;SDS011;8484;50.904;9.192;2022-07-09T11:34:30;2.43;;;0.33;;
16731;SDS011;8484;50.904;9.192;2022-07-09T11:36:58;1.73;;;0.30;;
16731;SDS011;8484;50.904;9.192;2022-07-09T11:39:26;0.70;;;0.40;;
16731;SDS011;8484;50.904;9.192;2022-07-09T11:41:54;0.30;;;0.30;;
16731;SDS011;8484;50.904;9.192;2022-07-09T11:44:25;0.20;;;0.20;;
16731;SDS011;8484;50.904;9.192;2022-07-09T11:49:46;0.30;;;0.27;;
16731;SDS011;8484;50.904;9.192;2022-07-09T11:52:18;0.50;;;0.50;;
16731;SDS011;8484;50.904;9.192;2022-07-09T11:54:56;0.20;;;0.20;;
16731;SDS011;8484;50.904;9.192;2022-07-09T11:57:23;0.20;;;0.20;;
16731;SDS011;8484;50.904;9.192;2022-07-09T11:59:50;1.80;;;0.40;;
16731;SDS011;8484;50.904;9.192;2022-07-09T12:02:25;0.40;;;0.40;;
16731;SDS011;8484;50.904;9.192;2022-07-09T12:04:53;0.30;;;0.30;;
16731;SDS011;8484;50.904;9.192;2022-07-09T12:07:19;1.80;;;0.30;;
16731;SDS011;8484;50.904;9.192;2022-07-09T12:09:56;0.40;;;0.30;;
16731;SDS011;8484;50.904;9.192;2022-07-09T12:12:24;1.17;;;0.40;;
16731;SDS011;8484;50.904;9.192;2022-07-09T12:14:51;2.10;;;0.40;;
16731;SDS011;8484;50.904;9.192;2022-07-09T12:17:19;0.50;;;0.30;;
16731;SDS011;8484;50.904;9.192;2022-07-09T12:19:49;0.50;;;0.40;;
16731;SDS011;8484;50.904;9.192;2022-07-09T12:22:16;0.40;;;0.30;;
16731;SDS011;8484;50.904;9.192;2022-07-09T12:24:43;0.87;;;0.40;;
16731;SDS011;8484;50.904;9.192;2022-07-09T12:27:10;0.23;;;0.23;;
16731;SDS011;8484;50.904;9.192;2022-07-09T12:29:37;2.30;;;0.30;;
16731;SDS011;8484;50.904;9.192;2022-07-09T12:32:04;0.30;;;0.30;;
16731;SDS011;8484;50.904;9.192;2022-07-09T12:34:31;0.13;;;0.13;;
16731;SDS011;8484;50.904;9.192;2022-07-09T12:37:00;0.20;;;0.20;;
16731;SDS011;8484;50.904;9.192;2022-07-09T12:39:27;0.27;;;0.27;;
16731;SDS011;8484;50.904;9.192;2022-07-09T12:41:54;0.23;;;0.20;;
16731;SDS011;8484;50.904;9.192;2022-07-09T12:44:20;0.33;;;0.30;;
16731;SDS011;8484;50.904;9.192;2022-07-09T12:46:47;0.30;;;0.20;;
16731;SDS011;8484;50.904;9.192;2022-07-09T12:49:14;0.30;;;0.30;;
16731;SDS011;8484;50.904;9.192;2022-07-09T12:51:41;2.83;;;0.40;;
16731;SDS011;8484;50.904;9.192;2022-07-09T12:54:09;0.93;;;0.37;;
16731;SDS011;8484;50.904;9.192;2022-07-09T12:56:36;0.23;;;0.20;;
16731;SDS011;8484;50.904;9.192;2022-07-09T12:59:03;0.40;;;0.30;;
16731;SDS011;8484;50.904;9.192;2022-07-09T13:01:30;2.77;;;0.30;;
16731;SDS011;8484;50.904;9.192;2022-07-09T13:03:57;0.43;;;0.33;;
16731;SDS011;8484;50.904;9.192;2022-07-09T13:06:24;0.20;;;0.20;;
16731;SDS011;8484;50.904;9.192;2022-07-09T13:09:00;1.50;;;0.40;;
16731;SDS011;8484;50.904;9.192;2022-07-09T13:11:30;0.30;;;0.30;;
16731;SDS011;8484;50.904;9.192;2022-07-09T13:13:57;0.30;;;0.30;;
16731;SDS011;8484;50.904;9.192;2022-07-09T13:16:25;0.40;;;0.30;;
16731;SDS011;8484;50.904;9.192;2022-07-09T13:18:52;0.50;;;0.30;;
16731;SDS011;8484;50.904;9.192;2022-07-09T13:21:19;0.30;;;0.30;;
16731;SDS011;8484;50.904;9.192;2022-07-09T13:23:46;0.47;;;0.47;;
16731;SDS011;8484;50.904;9.192;2022-07-09T13:26:14;0.40;;;0.20;;
16731;SDS011;8484;50.904;9.192;2022-07-09T13:28:43;0.37;;;0.20;;
16731;SDS011;8484;50.904;9.192;2022-07-09T13:31:09;0.20;;;0.20;;
16731;SDS011;8484;50.904;9.192;2022-07-09T13:33:37;0.77;;;0.23;;
16731;SDS011;8484;50.904;9.192;2022-07-09T13:36:04;0.30;;;0.30;;
16731;SDS011;8484;50.904;9.192;2022-07-09T13:38:32;0.73;;;0.40;;
16731;SDS011;8484;50.904;9.192;2022-07-09T13:40:59;0.63;;;0.30;;
16731;SDS011;8484;50.904;9.192;2022-07-09T13:43:26;0.40;;;0.30;;
16731;SDS011;8484;50.904;9.192;2022-07-09T13:45:56;0.40;;;0.30;;
16731;SDS011;8484;50.904;9.192;2022-07-09T13:48:24;0.53;;;0.33;;
16731;SDS011;8484;50.904;9.192;2022-07-09T13:50:53;0.73;;;0.40;;
16731;SDS011;8484;50.904;9.192;2022-07-09T13:53:20;0.53;;;0.30;;
16731;SDS011;8484;50.904;9.192;2022-07-09T13:55:47;0.83;;;0.30;;
16731;SDS011;8484;50.904;9.192;2022-07-09T13:58:14;1.03;;;0.20;;
16731;SDS011;8484;50.904;9.192;2022-07-09T14:00:41;0.63;;;0.43;;
16731;SDS011;8484;50.904;9.192;2022-07-09T14:03:09;0.47;;;0.30;;
16731;SDS011;8484;50.904;9.192;2022-07-09T14:05:36;0.40;;;0.30;;
16731;SDS011;8484;50.904;9.192;2022-07-09T14:08:04;1.63;;;0.20;;
16731;SDS011;8484;50.904;9.192;2022-07-09T14:10:31;0.27;;;0.20;;
16731;SDS011;8484;50.904;9.192;2022-07-09T14:12:58;0.67;;;0.40;;
16731;SDS011;8484;50.904;9.192;2022-07-09T14:15:25;0.63;;;0.30;;
16731;SDS011;8484;50.904;9.192;2022-07-09T14:17:52;0.37;;;0.30;;
16731;SDS011;8484;50.904;9.192;2022-07-09T14:20:20;0.37;;;0.30;;
16731;SDS011;8484;50.904;9.192;2022-07-09T14:22:48;0.60;;;0.40;;
16731;SDS011;8484;50.904;9.192;2022-07-09T14:25:15;0.33;;;0.30;;
16731;SDS011;8484;50.904;9.192;2022-07-09T14:27:42;0.60;;;0.40;;
16731;SDS011;8484;50.904;9.192;2022-07-09T14:30:09;1.27;;;0.40;;
16731;SDS011;8484;50.904;9.192;2022-07-09T14:32:37;1.80;;;0.57;;
16731;SDS011;8484;50.904;9.192;2022-07-09T14:35:04;1.90;;;0.50;;
16731;SDS011;8484;50.904;9.192;2022-07-09T14:37:32;3.20;;;0.97;;
16731;SDS011;8484;50.904;9.192;2022-07-09T14:40:00;1.33;;;0.70;;
16731;SDS011;8484;50.904;9.192;2022-07-09T14:42:26;0.80;;;0.70;;
16731;SDS011;8484;50.904;9.192;2022-07-09T14:45:00;1.17;;;0.90;;
16731;SDS011;8484;50.904;9.192;2022-07-09T14:47:27;1.53;;;0.90;;
16731;SDS011;8484;50.904;9.192;2022-07-09T14:49:54;1.77;;;0.60;;
16731;SDS011;8484;50.904;9.192;2022-07-09T14:52:21;0.77;;;0.63;;
16731;SDS011;8484;50.904;9.192;2022-07-09T14:54:51;0.50;;;0.50;;
16731;SDS011;8484;50.904;9.192;2022-07-09T14:57:17;0.50;;;0.50;;
16731;SDS011;8484;50.904;9.192;2022-07-09T14:59:44;0.57;;;0.40;;
16731;SDS011;8484;50.904;9.192;2022-07-09T15:02:11;0.80;;;0.70;;
16731;SDS011;8484;50.904;9.192;2022-07-09T15:04:38;3.17;;;0.70;;
16731;SDS011;8484;50.904;9.192;2022-07-09T15:07:05;2.67;;;0.47;;